Terminal Aerodrome Forecast
Issued by NWS

Home | Current Version | Previous Version | Text Only | Print | Product List | Glossary On
Versions: 1 2 3 4 5 6 7 8 9 10 11 12 13 14 15 16 17
000
FTUS46 KPDT 252300
TAFPSC
TAF
KPSC 252320Z 2600/2624 10010KT P6SM BKN100
     FM260200 20020G30KT P6SM -SHRA BKN070 OVC090
     FM260600 20020G32KT P6SM SCT070 BKN090 BKN150
     FM261400 22015G25KT P6SM SCT090=

USA.gov is the U.S. government's official web portal to all federal, state and local government web resources and services.